createdAt,value
2023-03-22T00:02:23.181Z,80.10
2023-03-22T00:06:05.778Z,80.20
2023-03-22T00:09:47.695Z,80.30
2023-03-22T00:13:29.962Z,80.40
2023-03-22T00:17:11.880Z,80.50
2023-03-22T00:20:56.196Z,80.50
2023-03-22T00:24:38.356Z,80.80
2023-03-22T00:28:20.281Z,80.80
2023-03-22T00:32:02.986Z,80.90
2023-03-22T00:35:52.458Z,80.80
2023-03-22T00:39:34.354Z,81.10
2023-03-22T00:43:16.891Z,81.00
2023-03-22T00:46:58.998Z,81.00
2023-03-22T00:50:41.346Z,81.10
2023-03-22T00:54:23.271Z,81.10
2023-03-22T00:58:05.608Z,81.20
2023-03-22T01:01:47.538Z,81.40
2023-03-22T01:05:34.993Z,81.40
2023-03-22T01:09:16.859Z,81.40
2023-03-22T01:12:58.796Z,81.60
2023-03-22T01:16:41.009Z,81.60
2023-03-22T01:20:23.954Z,81.60
2023-03-22T01:24:06.117Z,81.60
2023-03-22T01:27:48.052Z,81.70
2023-03-22T01:31:30.018Z,81.80
2023-03-22T01:35:11.962Z,82.00
2023-03-22T01:38:53.912Z,82.10
2023-03-22T01:42:35.962Z,82.10
2023-03-22T01:46:18.090Z,82.10
2023-03-22T01:50:00.024Z,82.30
2023-03-22T01:53:56.388Z,82.20
2023-03-22T01:57:40.049Z,82.80
2023-03-22T02:01:22.645Z,82.40
2023-03-22T02:05:05.086Z,82.50
2023-03-22T02:08:47.108Z,82.60
2023-03-22T02:12:39.813Z,82.80
2023-03-22T02:16:57.263Z,82.70
2023-03-22T02:20:45.365Z,82.90
2023-03-22T02:24:30.233Z,82.80
2023-03-22T02:28:40.529Z,82.90
2023-03-22T02:33:00.747Z,83.40
2023-03-22T02:37:13.508Z,83.70
2023-03-22T02:41:01.683Z,83.40
2023-03-22T02:44:54.111Z,83.10
2023-03-22T02:48:53.329Z,83.20
2023-03-22T02:52:55.391Z,83.10
2023-03-22T02:56:47.057Z,83.20
2023-03-22T03:00:30.521Z,83.20
2023-03-22T03:04:21.605Z,83.30
2023-03-22T03:08:04.581Z,83.60
2023-03-22T03:11:52.228Z,83.50
2023-03-22T03:15:34.203Z,83.60
2023-03-22T03:19:33.070Z,83.60
2023-03-22T03:23:24.541Z,83.80
2023-03-22T03:27:21.943Z,83.90
2023-03-22T03:31:10.948Z,83.80
2023-03-22T03:35:22.589Z,84.10
2023-03-22T03:39:09.248Z,84.40
2023-03-22T03:42:54.223Z,83.90
2023-03-22T03:46:36.409Z,84.00
2023-03-22T03:50:18.468Z,84.00
2023-03-22T03:54:00.429Z,84.20
2023-03-22T03:57:42.331Z,84.50
2023-03-22T04:01:26.445Z,84.30
2023-03-22T04:05:09.296Z,84.40
2023-03-22T04:08:53.787Z,84.50
2023-03-22T04:12:36.018Z,84.40
2023-03-22T04:16:17.971Z,84.60
2023-03-22T04:19:59.947Z,84.60
2023-03-22T04:23:41.860Z,84.60
2023-03-22T04:27:23.796Z,84.60
2023-03-22T04:31:07.016Z,84.60
2023-03-22T04:34:49.938Z,84.70
2023-03-22T04:38:31.931Z,84.70
2023-03-22T04:42:13.868Z,84.80
2023-03-22T04:45:58.276Z,84.90
2023-03-22T04:49:40.405Z,84.90
2023-03-22T04:53:27.248Z,85.00
2023-03-22T04:57:09.249Z,85.00
2023-03-22T05:00:55.523Z,85.10
2023-03-22T05:04:37.458Z,85.00
2023-03-22T05:08:20.992Z,85.10
2023-03-22T05:12:02.952Z,85.20
2023-03-22T05:15:45.732Z,85.30
2023-03-22T05:19:27.688Z,85.20
2023-03-22T05:23:10.370Z,85.20
2023-03-22T05:26:54.067Z,85.20
2023-03-22T05:30:36.263Z,85.30
2023-03-22T05:34:20.444Z,85.40
2023-03-22T05:38:02.512Z,85.40
2023-03-22T05:41:44.769Z,85.40
2023-03-22T05:45:27.279Z,85.50
2023-03-22T05:49:10.552Z,85.50
2023-03-22T05:52:54.184Z,85.50
2023-03-22T05:56:36.371Z,85.60
2023-03-22T06:00:19.085Z,85.60
2023-03-22T06:04:01.562Z,85.60
2023-03-22T06:07:44.520Z,85.60
2023-03-22T06:11:26.661Z,85.70
2023-03-22T06:15:10.146Z,85.70
2023-03-22T06:18:52.036Z,85.90
2023-03-22T06:22:33.911Z,86.10
2023-03-22T06:26:15.841Z,86.10
2023-03-22T06:29:57.784Z,86.10
2023-03-22T06:33:39.741Z,86.20
2023-03-22T06:37:22.252Z,86.30
2023-03-22T06:41:04.400Z,86.40
2023-03-22T06:44:46.465Z,86.50
2023-03-22T06:48:28.483Z,86.30
2023-03-22T06:52:10.380Z,86.30
2023-03-22T06:55:55.227Z,86.20
2023-03-22T06:59:37.511Z,86.30
2023-03-22T07:03:19.866Z,86.20
2023-03-22T07:07:01.747Z,85.90
2023-03-22T07:10:44.017Z,85.90
2023-03-22T07:14:25.992Z,86.00
2023-03-22T07:18:08.611Z,86.20
2023-03-22T07:21:50.861Z,86.30
2023-03-22T07:25:32.814Z,86.30
2023-03-22T07:29:14.690Z,86.40
2023-03-22T07:32:56.719Z,86.40
2023-03-22T07:36:38.687Z,86.50
2023-03-22T07:40:20.690Z,86.60
2023-03-22T07:44:16.903Z,86.60
2023-03-22T07:47:59.681Z,86.70
2023-03-22T07:51:41.756Z,86.90
2023-03-22T07:55:24.051Z,86.80
2023-03-22T07:59:06.451Z,86.70
2023-03-22T08:02:48.552Z,86.60
2023-03-22T08:06:33.172Z,86.60
2023-03-22T08:10:16.029Z,86.70
2023-03-22T08:13:57.899Z,87.00
2023-03-22T08:17:39.908Z,87.30
2023-03-22T08:21:21.815Z,87.10
2023-03-22T08:25:07.342Z,87.20
2023-03-22T08:28:49.204Z,86.90
2023-03-22T08:32:31.194Z,86.60
2023-03-22T08:36:16.464Z,86.40
2023-03-22T08:39:58.611Z,86.40
2023-03-22T08:43:40.569Z,86.50
2023-03-22T08:47:22.520Z,86.40
2023-03-22T08:51:06.575Z,86.30
2023-03-22T08:54:48.633Z,87.20
2023-03-22T08:58:30.835Z,88.50
2023-03-22T09:02:13.217Z,89.10
2023-03-22T09:05:55.418Z,89.50
2023-03-22T09:09:37.442Z,89.70
2023-03-22T09:13:20.209Z,89.90
2023-03-22T09:17:02.326Z,90.20
2023-03-22T09:20:46.026Z,88.90
2023-03-22T09:24:27.973Z,86.00
2023-03-22T09:28:10.613Z,84.40
2023-03-22T09:31:53.584Z,84.90
2023-03-22T09:35:35.743Z,83.20
2023-03-22T09:39:17.844Z,81.50
2023-03-22T09:43:04.226Z,81.80
2023-03-22T09:46:50.033Z,80.30
2023-03-22T09:50:33.586Z,77.90
2023-03-22T09:54:34.153Z,75.90
2023-03-22T09:58:51.595Z,68.60
2023-03-22T10:02:43.524Z,68.30
2023-03-22T10:06:28.287Z,69.80
2023-03-22T10:10:21.782Z,72.20
2023-03-22T10:14:38.382Z,62.60
2023-03-22T10:18:25.171Z,59.20
2023-03-22T10:22:09.906Z,66.80
2023-03-22T10:25:53.125Z,66.50
2023-03-22T10:29:43.788Z,67.90
2023-03-22T10:33:38.507Z,66.00
2023-03-22T10:37:26.814Z,63.70
2023-03-22T10:41:09.810Z,62.10
2023-03-22T10:45:01.544Z,64.40
2023-03-22T10:48:46.016Z,62.40
2023-03-22T10:52:30.760Z,63.50
2023-03-22T10:56:20.115Z,63.10
2023-03-22T11:00:11.484Z,59.20
2023-03-22T11:03:58.172Z,58.10
2023-03-22T11:07:44.392Z,60.80
2023-03-22T11:11:27.696Z,62.00
2023-03-22T11:15:30.088Z,61.70
2023-03-22T11:19:19.154Z,52.80
2023-03-22T11:23:03.897Z,56.90
2023-03-22T11:27:06.371Z,58.50
2023-03-22T11:31:09.936Z,50.80
2023-03-22T11:35:21.537Z,50.30
2023-03-22T11:39:07.959Z,50.80
2023-03-22T11:42:54.134Z,51.70
2023-03-22T11:46:37.727Z,52.60
2023-03-22T11:50:29.622Z,52.80
2023-03-22T11:54:27.215Z,49.60
2023-03-22T11:58:28.964Z,53.30
2023-03-22T12:02:28.515Z,50.60
2023-03-22T12:06:28.692Z,52.50
2023-03-22T12:10:17.015Z,53.80
2023-03-22T12:14:03.822Z,55.20
2023-03-22T12:17:52.840Z,56.00
2023-03-22T12:21:35.409Z,57.40
2023-03-22T12:25:22.357Z,58.40
2023-03-22T12:29:06.779Z,59.20
2023-03-22T12:33:11.756Z,59.90
2023-03-22T12:36:57.455Z,60.10
2023-03-22T12:40:41.493Z,61.00
2023-03-22T12:44:34.093Z,61.50
2023-03-22T12:48:33.394Z,61.50
2023-03-22T12:52:37.646Z,61.90
2023-03-22T12:56:37.007Z,62.10
2023-03-22T13:00:20.841Z,62.30
2023-03-22T13:04:28.086Z,62.50
2023-03-22T13:08:10.384Z,63.20
2023-03-22T13:12:17.226Z,63.70
2023-03-22T13:16:11.220Z,64.10
2023-03-22T13:20:06.964Z,64.20
2023-03-22T13:24:15.503Z,63.90
2023-03-22T13:28:22.448Z,63.60
2023-03-22T13:32:24.547Z,63.40
2023-03-22T13:36:21.230Z,63.30
2023-03-22T13:40:13.584Z,63.20
2023-03-22T13:43:57.732Z,63.10
2023-03-22T13:47:47.079Z,63.10
2023-03-22T13:51:32.193Z,63.60
2023-03-22T13:55:36.467Z,64.00
2023-03-22T13:59:27.459Z,64.20
2023-03-22T14:03:27.147Z,64.80
2023-03-22T14:07:27.353Z,65.00
2023-03-22T14:11:34.748Z,65.20
2023-03-22T14:15:21.640Z,65.20
2023-03-22T14:19:06.472Z,65.50
